sensor_id;sensor_type;location;lat;lon;timestamp;pressure;altitude;pressure_sealevel;temperature;humidity
61345;BME280;47216;42.656;23.232;2023-04-30T00:00:59;93594.31;;;10.33;68.00
61345;BME280;47216;42.656;23.232;2023-04-30T00:03:27;93597.97;;;10.37;68.21
61345;BME280;47216;42.656;23.232;2023-04-30T00:05:54;93587.53;;;10.37;68.41
61345;BME280;47216;42.656;23.232;2023-04-30T00:08:21;93593.81;;;10.41;67.84
61345;BME280;47216;42.656;23.232;2023-04-30T00:10:48;93592.59;;;10.54;66.97
61345;BME280;47216;42.656;23.232;2023-04-30T00:13:16;93591.78;;;10.54;67.03
61345;BME280;47216;42.656;23.232;2023-04-30T00:15:43;93578.50;;;10.50;67.49
61345;BME280;47216;42.656;23.232;2023-04-30T00:18:10;93592.28;;;10.45;67.12
61345;BME280;47216;42.656;23.232;2023-04-30T00:20:38;93597.69;;;10.34;67.83
61345;BME280;47216;42.656;23.232;2023-04-30T00:23:05;93590.63;;;10.29;68.01
61345;BME280;47216;42.656;23.232;2023-04-30T00:25:32;93587.44;;;10.22;67.87
61345;BME280;47216;42.656;23.232;2023-04-30T00:27:58;93567.97;;;9.97;68.25
61345;BME280;47216;42.656;23.232;2023-04-30T00:30:25;93592.88;;;10.20;67.86
61345;BME280;47216;42.656;23.232;2023-04-30T00:32:52;93591.53;;;10.13;68.06
61345;BME280;47216;42.656;23.232;2023-04-30T00:35:19;93583.09;;;10.00;68.01
61345;BME280;47216;42.656;23.232;2023-04-30T00:37:47;93588.97;;;9.80;68.64
61345;BME280;47216;42.656;23.232;2023-04-30T00:40:14;93593.38;;;9.80;68.44
61345;BME280;47216;42.656;23.232;2023-04-30T00:42:41;93585.44;;;9.64;68.91
61345;BME280;47216;42.656;23.232;2023-04-30T00:45:09;93591.19;;;9.66;69.46
61345;BME280;47216;42.656;23.232;2023-04-30T00:47:36;93593.69;;;9.56;69.17
61345;BME280;47216;42.656;23.232;2023-04-30T00:50:03;93590.03;;;9.52;69.12
61345;BME280;47216;42.656;23.232;2023-04-30T00:52:30;93575.53;;;9.34;69.67
61345;BME280;47216;42.656;23.232;2023-04-30T00:54:58;93590.47;;;9.44;68.83
61345;BME280;47216;42.656;23.232;2023-04-30T00:57:25;93589.88;;;9.37;69.57
61345;BME280;47216;42.656;23.232;2023-04-30T00:59:53;93586.72;;;9.35;68.93
61345;BME280;47216;42.656;23.232;2023-04-30T01:02:21;93586.44;;;9.31;69.02
61345;BME280;47216;42.656;23.232;2023-04-30T01:04:49;93587.69;;;9.29;69.83
61345;BME280;47216;42.656;23.232;2023-04-30T01:07:16;93584.09;;;9.30;69.74
61345;BME280;47216;42.656;23.232;2023-04-30T01:09:43;93561.59;;;9.18;70.20
61345;BME280;47216;42.656;23.232;2023-04-30T01:12:16;93583.00;;;9.25;68.88
61345;BME280;47216;42.656;23.232;2023-04-30T01:14:54;93575.72;;;9.28;69.54
61345;BME280;47216;42.656;23.232;2023-04-30T01:17:27;93581.09;;;9.16;70.11
61345;BME280;47216;42.656;23.232;2023-04-30T01:19:58;93571.97;;;9.13;68.95
61345;BME280;47216;42.656;23.232;2023-04-30T01:22:34;93578.16;;;9.12;69.15
61345;BME280;47216;42.656;23.232;2023-04-30T01:28:14;93552.63;;;9.04;69.78
61345;BME280;47216;42.656;23.232;2023-04-30T01:30:42;93562.47;;;9.02;70.14
61345;BME280;47216;42.656;23.232;2023-04-30T01:33:10;93580.31;;;9.15;69.61
61345;BME280;47216;42.656;23.232;2023-04-30T01:38:51;93553.16;;;9.06;69.29
61345;BME280;47216;42.656;23.232;2023-04-30T01:41:27;93586.84;;;9.18;68.70
61345;BME280;47216;42.656;23.232;2023-04-30T01:44:05;93577.97;;;9.19;68.96
61345;BME280;47216;42.656;23.232;2023-04-30T01:46:35;93567.31;;;9.15;68.68
61345;BME280;47216;42.656;23.232;2023-04-30T01:49:07;93580.16;;;9.27;68.55
61345;BME280;47216;42.656;23.232;2023-04-30T01:51:40;93584.66;;;9.37;68.04
61345;BME280;47216;42.656;23.232;2023-04-30T01:54:12;93580.00;;;9.39;68.68
61345;BME280;47216;42.656;23.232;2023-04-30T01:56:47;93567.19;;;9.32;67.67
61345;BME280;47216;42.656;23.232;2023-04-30T01:59:19;93577.91;;;9.36;67.86
61345;BME280;47216;42.656;23.232;2023-04-30T02:01:46;93576.88;;;9.37;67.51
61345;BME280;47216;42.656;23.232;2023-04-30T02:04:13;93579.47;;;9.37;67.67
61345;BME280;47216;42.656;23.232;2023-04-30T02:06:40;93582.81;;;9.32;67.67
61345;BME280;47216;42.656;23.232;2023-04-30T02:09:07;93579.38;;;9.27;67.39
61345;BME280;47216;42.656;23.232;2023-04-30T02:11:35;93554.28;;;9.15;67.53
61345;BME280;47216;42.656;23.232;2023-04-30T02:14:01;93566.47;;;9.37;67.32
61345;BME280;47216;42.656;23.232;2023-04-30T02:16:30;93578.78;;;9.46;67.65
61345;BME280;47216;42.656;23.232;2023-04-30T02:18:56;93525.25;;;9.29;67.73
61345;BME280;47216;42.656;23.232;2023-04-30T02:21:23;93535.31;;;9.47;66.64
61345;BME280;47216;42.656;23.232;2023-04-30T02:23:51;93569.41;;;9.78;66.43
61345;BME280;47216;42.656;23.232;2023-04-30T02:26:18;93546.16;;;9.66;66.04
61345;BME280;47216;42.656;23.232;2023-04-30T02:28:45;93573.59;;;9.84;66.52
61345;BME280;47216;42.656;23.232;2023-04-30T02:31:12;93549.63;;;9.82;67.03
61345;BME280;47216;42.656;23.232;2023-04-30T02:33:40;93557.97;;;9.84;66.14
61345;BME280;47216;42.656;23.232;2023-04-30T02:36:07;93566.16;;;9.98;66.97
61345;BME280;47216;42.656;23.232;2023-04-30T02:38:34;93573.22;;;10.02;66.90
61345;BME280;47216;42.656;23.232;2023-04-30T02:41:01;93575.81;;;10.02;66.57
61345;BME280;47216;42.656;23.232;2023-04-30T02:43:27;93570.00;;;9.90;66.22
61345;BME280;47216;42.656;23.232;2023-04-30T02:45:54;93580.00;;;10.03;66.64
61345;BME280;47216;42.656;23.232;2023-04-30T02:48:21;93573.50;;;10.01;66.86
61345;BME280;47216;42.656;23.232;2023-04-30T02:50:50;93579.19;;;9.98;66.95
61345;BME280;47216;42.656;23.232;2023-04-30T02:53:16;93562.44;;;9.88;67.25
61345;BME280;47216;42.656;23.232;2023-04-30T02:55:43;93579.25;;;10.08;67.02
61345;BME280;47216;42.656;23.232;2023-04-30T02:58:10;93583.41;;;10.04;66.86
61345;BME280;47216;42.656;23.232;2023-04-30T03:00:37;93568.69;;;9.87;67.16
61345;BME280;47216;42.656;23.232;2023-04-30T03:03:04;93566.63;;;9.89;66.85
61345;BME280;47216;42.656;23.232;2023-04-30T03:05:31;93582.09;;;10.06;67.18
61345;BME280;47216;42.656;23.232;2023-04-30T03:07:59;93578.19;;;10.04;67.09
61345;BME280;47216;42.656;23.232;2023-04-30T03:10:26;93583.09;;;10.00;66.63
61345;BME280;47216;42.656;23.232;2023-04-30T03:12:53;93581.47;;;9.89;66.69
61345;BME280;47216;42.656;23.232;2023-04-30T03:15:20;93585.84;;;9.83;67.36
61345;BME280;47216;42.656;23.232;2023-04-30T03:17:47;93589.13;;;9.68;68.24
61345;BME280;47216;42.656;23.232;2023-04-30T03:20:13;93579.66;;;9.57;68.74
61345;BME280;47216;42.656;23.232;2023-04-30T03:22:40;93598.22;;;9.66;68.64
61345;BME280;47216;42.656;23.232;2023-04-30T03:25:09;93590.66;;;9.64;69.08
61345;BME280;47216;42.656;23.232;2023-04-30T03:27:36;93589.66;;;9.71;68.55
61345;BME280;47216;42.656;23.232;2023-04-30T03:30:03;93600.59;;;9.73;69.51
61345;BME280;47216;42.656;23.232;2023-04-30T03:32:31;93596.00;;;9.80;68.68
61345;BME280;47216;42.656;23.232;2023-04-30T03:34:58;93597.59;;;9.86;68.63
61345;BME280;47216;42.656;23.232;2023-04-30T03:37:25;93580.00;;;9.66;68.65
61345;BME280;47216;42.656;23.232;2023-04-30T03:39:52;93605.34;;;9.81;68.47
61345;BME280;47216;42.656;23.232;2023-04-30T03:42:20;93604.91;;;9.89;69.03
61345;BME280;47216;42.656;23.232;2023-04-30T03:44:47;93594.22;;;9.91;68.66
61345;BME280;47216;42.656;23.232;2023-04-30T03:47:14;93598.69;;;9.95;68.78
61345;BME280;47216;42.656;23.232;2023-04-30T03:49:41;93616.09;;;10.22;68.85
61345;BME280;47216;42.656;23.232;2023-04-30T03:52:07;93617.47;;;10.29;67.90
61345;BME280;47216;42.656;23.232;2023-04-30T03:54:34;93601.38;;;10.05;68.39
61345;BME280;47216;42.656;23.232;2023-04-30T03:57:01;93619.78;;;10.26;68.28
61345;BME280;47216;42.656;23.232;2023-04-30T03:59:31;93630.03;;;10.38;68.05
61345;BME280;47216;42.656;23.232;2023-04-30T04:01:59;93620.91;;;10.35;67.32
61345;BME280;47216;42.656;23.232;2023-04-30T04:04:25;93588.41;;;10.10;67.37
61345;BME280;47216;42.656;23.232;2023-04-30T04:06:52;93613.03;;;10.30;67.51
61345;BME280;47216;42.656;23.232;2023-04-30T04:09:19;93632.91;;;10.41;68.50
61345;BME280;47216;42.656;23.232;2023-04-30T04:11:46;93628.28;;;10.54;68.06
61345;BME280;47216;42.656;23.232;2023-04-30T04:14:13;93616.81;;;10.49;68.02
61345;BME280;47216;42.656;23.232;2023-04-30T04:16:42;93631.47;;;10.61;68.06
61345;BME280;47216;42.656;23.232;2023-04-30T04:19:09;93631.56;;;10.76;67.28
61345;BME280;47216;42.656;23.232;2023-04-30T04:21:37;93615.34;;;10.69;67.10
61345;BME280;47216;42.656;23.232;2023-04-30T04:24:04;93628.47;;;10.84;67.01
61345;BME280;47216;42.656;23.232;2023-04-30T04:26:33;93608.66;;;10.88;66.89
61345;BME280;47216;42.656;23.232;2023-04-30T04:29:00;93629.88;;;11.07;66.95
61345;BME280;47216;42.656;23.232;2023-04-30T04:31:28;93635.88;;;11.13;66.82
61345;BME280;47216;42.656;23.232;2023-04-30T04:33:58;93632.25;;;11.19;67.02
61345;BME280;47216;42.656;23.232;2023-04-30T04:36:25;93629.66;;;11.19;67.67
61345;BME280;47216;42.656;23.232;2023-04-30T04:38:53;93632.81;;;11.31;67.16
61345;BME280;47216;42.656;23.232;2023-04-30T04:41:20;93639.63;;;11.43;66.97
61345;BME280;47216;42.656;23.232;2023-04-30T04:43:47;93624.44;;;11.29;66.14
61345;BME280;47216;42.656;23.232;2023-04-30T04:46:14;93643.84;;;11.44;66.23
61345;BME280;47216;42.656;23.232;2023-04-30T04:48:41;93643.84;;;11.49;66.21
61345;BME280;47216;42.656;23.232;2023-04-30T04:51:10;93648.00;;;11.55;66.28
61345;BME280;47216;42.656;23.232;2023-04-30T04:53:36;93647.75;;;11.51;65.78
61345;BME280;47216;42.656;23.232;2023-04-30T04:56:04;93649.06;;;11.54;66.32
61345;BME280;47216;42.656;23.232;2023-04-30T04:58:31;93653.75;;;11.52;66.26
61345;BME280;47216;42.656;23.232;2023-04-30T05:00:58;93658.22;;;11.62;66.16
61345;BME280;47216;42.656;23.232;2023-04-30T05:03:26;93636.00;;;11.54;65.96
61345;BME280;47216;42.656;23.232;2023-04-30T05:05:52;93659.03;;;11.72;66.13
61345;BME280;47216;42.656;23.232;2023-04-30T05:08:21;93649.63;;;11.82;65.89
61345;BME280;47216;42.656;23.232;2023-04-30T05:10:48;93596.31;;;11.52;65.93
61345;BME280;47216;42.656;23.232;2023-04-30T05:13:14;93648.38;;;12.00;66.04
61345;BME280;47216;42.656;23.232;2023-04-30T05:15:41;93647.31;;;12.06;66.19
61345;BME280;47216;42.656;23.232;2023-04-30T05:18:08;93646.00;;;12.08;66.30
61345;BME280;47216;42.656;23.232;2023-04-30T05:20:35;93650.75;;;12.16;67.10
61345;BME280;47216;42.656;23.232;2023-04-30T05:23:02;93650.22;;;12.25;66.37
61345;BME280;47216;42.656;23.232;2023-04-30T05:25:30;93657.53;;;12.33;66.45
61345;BME280;47216;42.656;23.232;2023-04-30T05:27:57;93654.91;;;12.38;66.44
61345;BME280;47216;42.656;23.232;2023-04-30T05:30:24;93650.19;;;12.45;66.45
61345;BME280;47216;42.656;23.232;2023-04-30T05:32:50;93658.06;;;12.50;66.24
61345;BME280;47216;42.656;23.232;2023-04-30T05:35:17;93651.22;;;12.49;65.75
61345;BME280;47216;42.656;23.232;2023-04-30T05:37:45;93650.19;;;12.45;65.76
61345;BME280;47216;42.656;23.232;2023-04-30T05:40:12;93635.03;;;12.37;65.48
61345;BME280;47216;42.656;23.232;2023-04-30T05:42:41;93655.44;;;12.50;65.92
61345;BME280;47216;42.656;23.232;2023-04-30T05:45:09;93652.28;;;12.53;66.14
61345;BME280;47216;42.656;23.232;2023-04-30T05:47:36;93653.59;;;12.56;66.27
61345;BME280;47216;42.656;23.232;2023-04-30T05:50:04;93646.50;;;12.56;66.06
61345;BME280;47216;42.656;23.232;2023-04-30T05:52:31;93655.16;;;12.62;66.02
61345;BME280;47216;42.656;23.232;2023-04-30T05:54:58;93654.06;;;12.68;66.25
61345;BME280;47216;42.656;23.232;2023-04-30T05:57:24;93649.66;;;12.69;65.91
61345;BME280;47216;42.656;23.232;2023-04-30T05:59:53;93661.38;;;12.81;65.71
61345;BME280;47216;42.656;23.232;2023-04-30T06:02:20;93667.13;;;12.83;65.36
61345;BME280;47216;42.656;23.232;2023-04-30T06:04:46;93652.78;;;12.76;65.36
61345;BME280;47216;42.656;23.232;2023-04-30T06:07:13;93668.97;;;12.88;65.52
61345;BME280;47216;42.656;23.232;2023-04-30T06:09:40;93656.72;;;12.73;65.46
61345;BME280;47216;42.656;23.232;2023-04-30T06:12:07;93646.25;;;12.73;65.91
61345;BME280;47216;42.656;23.232;2023-04-30T06:14:34;93650.13;;;12.86;66.05
61345;BME280;47216;42.656;23.232;2023-04-30T06:17:02;93677.28;;;13.11;65.02
61345;BME280;47216;42.656;23.232;2023-04-30T06:19:29;93669.69;;;13.09;64.80
61345;BME280;47216;42.656;23.232;2023-04-30T06:21:56;93681.97;;;13.14;64.95
61345;BME280;47216;42.656;23.232;2023-04-30T06:24:23;93666.28;;;13.09;65.34
61345;BME280;47216;42.656;23.232;2023-04-30T06:26:51;93658.44;;;13.09;65.32
61345;BME280;47216;42.656;23.232;2023-04-30T06:29:18;93655.25;;;13.22;64.98
61345;BME280;47216;42.656;23.232;2023-04-30T06:31:45;93664.59;;;13.43;61.70
61345;BME280;47216;42.656;23.232;2023-04-30T06:34:13;93667.97;;;13.49;61.23
61345;BME280;47216;42.656;23.232;2023-04-30T06:36:40;93669.25;;;13.57;60.15
61345;BME280;47216;42.656;23.232;2023-04-30T06:39:07;93649.38;;;13.51;59.52
61345;BME280;47216;42.656;23.232;2023-04-30T06:41:34;93669.16;;;13.77;59.17
61345;BME280;47216;42.656;23.232;2023-04-30T06:44:01;93655.94;;;13.93;60.92
61345;BME280;47216;42.656;23.232;2023-04-30T06:46:28;93664.91;;;13.86;62.57
61345;BME280;47216;42.656;23.232;2023-04-30T06:48:54;93672.94;;;14.00;62.85
61345;BME280;47216;42.656;23.232;2023-04-30T06:51:23;93668.97;;;14.08;62.39
61345;BME280;47216;42.656;23.232;2023-04-30T06:53:50;93677.81;;;14.17;62.34
61345;BME280;47216;42.656;23.232;2023-04-30T06:56:16;93636.56;;;13.94;62.23
61345;BME280;47216;42.656;23.232;2023-04-30T06:58:45;93679.56;;;14.27;61.20
61345;BME280;47216;42.656;23.232;2023-04-30T07:01:14;93655.81;;;14.13;61.57
61345;BME280;47216;42.656;23.232;2023-04-30T07:03:41;93664.97;;;14.16;61.90
61345;BME280;47216;42.656;23.232;2023-04-30T07:06:08;93674.06;;;14.28;59.74
61345;BME280;47216;42.656;23.232;2023-04-30T07:08:36;93685.00;;;14.36;56.08
61345;BME280;47216;42.656;23.232;2023-04-30T07:11:05;93681.31;;;14.42;53.66
61345;BME280;47216;42.656;23.232;2023-04-30T07:13:32;93678.34;;;14.48;54.38
61345;BME280;47216;42.656;23.232;2023-04-30T07:15:59;93694.81;;;14.59;53.92
61345;BME280;47216;42.656;23.232;2023-04-30T07:18:25;93693.72;;;14.65;53.77
61345;BME280;47216;42.656;23.232;2023-04-30T07:20:52;93688.94;;;14.73;54.15
61345;BME280;47216;42.656;23.232;2023-04-30T07:23:19;93687.41;;;14.66;54.58
61345;BME280;47216;42.656;23.232;2023-04-30T07:25:47;93684.19;;;14.75;54.31
61345;BME280;47216;42.656;23.232;2023-04-30T07:28:14;93646.03;;;14.53;54.53
61345;BME280;47216;42.656;23.232;2023-04-30T07:30:41;93685.38;;;14.87;54.07
61345;BME280;47216;42.656;23.232;2023-04-30T07:33:08;93698.72;;;14.91;54.29
61345;BME280;47216;42.656;23.232;2023-04-30T07:35:35;93678.81;;;14.85;54.78
61345;BME280;47216;42.656;23.232;2023-04-30T07:38:02;93688.75;;;14.93;53.80
61345;BME280;47216;42.656;23.232;2023-04-30T07:40:29;93698.09;;;14.75;53.75
61345;BME280;47216;42.656;23.232;2023-04-30T07:42:57;93702.00;;;14.78;54.98
61345;BME280;47216;42.656;23.232;2023-04-30T07:45:24;93699.88;;;14.80;55.08
61345;BME280;47216;42.656;23.232;2023-04-30T07:47:51;93700.44;;;14.77;55.48
61345;BME280;47216;42.656;23.232;2023-04-30T07:50:17;93705.91;;;14.80;55.45
61345;BME280;47216;42.656;23.232;2023-04-30T07:52:44;93710.69;;;14.73;55.84
61345;BME280;47216;42.656;23.232;2023-04-30T07:55:14;93712.00;;;14.76;56.41
61345;BME280;47216;42.656;23.232;2023-04-30T07:57:41;93713.56;;;14.77;56.45
61345;BME280;47216;42.656;23.232;2023-04-30T08:00:11;93708.28;;;14.82;56.09
61345;BME280;47216;42.656;23.232;2023-04-30T08:02:39;93675.41;;;14.60;57.14
61345;BME280;47216;42.656;23.232;2023-04-30T08:05:08;93713.59;;;14.71;57.55
61345;BME280;47216;42.656;23.232;2023-04-30T08:07:35;93695.38;;;14.56;57.86
61345;BME280;47216;42.656;23.232;2023-04-30T08:10:03;93705.59;;;14.53;56.66
61345;BME280;47216;42.656;23.232;2023-04-30T08:12:30;93711.63;;;14.53;57.96
61345;BME280;47216;42.656;23.232;2023-04-30T08:14:59;93712.22;;;14.45;58.46
61345;BME280;47216;42.656;23.232;2023-04-30T08:17:28;93715.03;;;14.54;58.34
61345;BME280;47216;42.656;23.232;2023-04-30T08:19:55;93717.38;;;14.60;57.69
61345;BME280;47216;42.656;23.232;2023-04-30T08:22:22;93721.75;;;14.70;58.05
61345;BME280;47216;42.656;23.232;2023-04-30T08:24:49;93711.78;;;14.72;57.31
61345;BME280;47216;42.656;23.232;2023-04-30T08:27:16;93706.75;;;14.76;58.27
61345;BME280;47216;42.656;23.232;2023-04-30T08:29:43;93696.63;;;14.88;56.86
61345;BME280;47216;42.656;23.232;2023-04-30T08:32:10;93701.69;;;15.08;56.78
61345;BME280;47216;42.656;23.232;2023-04-30T08:34:39;93704.06;;;15.10;55.71
61345;BME280;47216;42.656;23.232;2023-04-30T08:37:07;93710.00;;;15.21;55.08
61345;BME280;47216;42.656;23.232;2023-04-30T08:39:34;93703.66;;;15.22;55.62
61345;BME280;47216;42.656;23.232;2023-04-30T08:42:03;93709.59;;;15.32;54.93
61345;BME280;47216;42.656;23.232;2023-04-30T08:44:34;93708.41;;;15.20;55.54
61345;BME280;47216;42.656;23.232;2023-04-30T08:47:06;93690.44;;;15.32;54.55
61345;BME280;47216;42.656;23.232;2023-04-30T08:49:34;93689.97;;;15.49;53.92
61345;BME280;47216;42.656;23.232;2023-04-30T08:52:03;93682.78;;;15.54;53.52
61345;BME280;47216;42.656;23.232;2023-04-30T08:54:30;93683.41;;;15.70;53.29
61345;BME280;47216;42.656;23.232;2023-04-30T08:56:57;93700.47;;;15.92;53.89
61345;BME280;47216;42.656;23.232;2023-04-30T08:59:24;93692.66;;;16.06;53.10
61345;BME280;47216;42.656;23.232;2023-04-30T09:01:51;93669.03;;;16.20;53.28
61345;BME280;47216;42.656;23.232;2023-04-30T09:04:17;93678.25;;;16.55;52.46
61345;BME280;47216;42.656;23.232;2023-04-30T09:06:44;93676.91;;;16.71;52.90
61345;BME280;47216;42.656;23.232;2023-04-30T09:09:14;93677.09;;;16.94;50.79
61345;BME280;47216;42.656;23.232;2023-04-30T09:11:41;93666.84;;;17.06;49.07
61345;BME280;47216;42.656;23.232;2023-04-30T09:14:09;93647.13;;;16.90;49.54
61345;BME280;47216;42.656;23.232;2023-04-30T09:16:47;93666.56;;;16.75;47.83
61345;BME280;47216;42.656;23.232;2023-04-30T09:19:24;93663.59;;;16.49;49.18
61345;BME280;47216;42.656;23.232;2023-04-30T09:21:51;93663.00;;;16.52;49.07
61345;BME280;47216;42.656;23.232;2023-04-30T09:24:20;93634.72;;;16.44;50.62
61345;BME280;47216;42.656;23.232;2023-04-30T09:26:47;93665.88;;;16.69;48.05
61345;BME280;47216;42.656;23.232;2023-04-30T09:29:15;93659.97;;;16.77;48.14
61345;BME280;47216;42.656;23.232;2023-04-30T09:31:44;93658.56;;;16.99;47.75
61345;BME280;47216;42.656;23.232;2023-04-30T09:34:12;93647.25;;;17.12;48.80
61345;BME280;47216;42.656;23.232;2023-04-30T09:36:51;93650.06;;;17.02;48.26
61345;BME280;47216;42.656;23.232;2023-04-30T09:39:20;93643.78;;;16.84;48.96
61345;BME280;47216;42.656;23.232;2023-04-30T09:41:49;93628.38;;;16.91;49.26
61345;BME280;47216;42.656;23.232;2023-04-30T09:44:26;93627.31;;;16.92;48.30
61345;BME280;47216;42.656;23.232;2023-04-30T09:46:54;93615.22;;;17.05;48.00
61345;BME280;47216;42.656;23.232;2023-04-30T09:49:21;93622.34;;;17.18;48.22
61345;BME280;47216;42.656;23.232;2023-04-30T09:51:55;93637.59;;;17.21;47.90
61345;BME280;47216;42.656;23.232;2023-04-30T09:54:24;93620.81;;;17.04;47.01
61345;BME280;47216;42.656;23.232;2023-04-30T09:56:53;93637.59;;;17.08;48.48
61345;BME280;47216;42.656;23.232;2023-04-30T09:59:21;93641.47;;;16.96;48.01
61345;BME280;47216;42.656;23.232;2023-04-30T10:01:50;93629.91;;;16.78;47.53
61345;BME280;47216;42.656;23.232;2023-04-30T10:04:18;93634.88;;;16.66;48.42
61345;BME280;47216;42.656;23.232;2023-04-30T10:06:46;93614.47;;;16.58;48.02
61345;BME280;47216;42.656;23.232;2023-04-30T10:09:14;93611.75;;;16.63;48.58
61345;BME280;47216;42.656;23.232;2023-04-30T10:11:43;93613.31;;;16.64;48.70
61345;BME280;47216;42.656;23.232;2023-04-30T10:14:12;93627.03;;;16.80;48.41
61345;BME280;47216;42.656;23.232;2023-04-30T10:16:42;93641.03;;;16.75;48.81
61345;BME280;47216;42.656;23.232;2023-04-30T10:19:13;93643.75;;;16.70;49.32
61345;BME280;47216;42.656;23.232;2023-04-30T10:21:42;93653.31;;;16.66;49.09
61345;BME280;47216;42.656;23.232;2023-04-30T10:24:12;93661.22;;;16.66;49.64
61345;BME280;47216;42.656;23.232;2023-04-30T10:26:41;93646.78;;;16.31;50.86
61345;BME280;47216;42.656;23.232;2023-04-30T10:29:09;93661.00;;;16.30;52.24
61345;BME280;47216;42.656;23.232;2023-04-30T10:31:36;93677.72;;;16.01;53.78
61345;BME280;47216;42.656;23.232;2023-04-30T10:34:10;93676.03;;;15.91;54.55
61345;BME280;47216;42.656;23.232;2023-04-30T10:36:42;93679.81;;;15.85;55.40
61345;BME280;47216;42.656;23.232;2023-04-30T10:39:13;93667.88;;;15.93;55.08
61345;BME280;47216;42.656;23.232;2023-04-30T10:41:45;93671.63;;;15.87;56.88
61345;BME280;47216;42.656;23.232;2023-04-30T10:44:13;93665.94;;;15.99;56.15
61345;BME280;47216;42.656;23.232;2023-04-30T10:46:41;93662.88;;;15.91;54.27
61345;BME280;47216;42.656;23.232;2023-04-30T10:49:08;93653.16;;;16.11;53.61
61345;BME280;47216;42.656;23.232;2023-04-30T10:51:49;93659.72;;;16.27;54.10
61345;BME280;47216;42.656;23.232;2023-04-30T10:54:24;93655.88;;;16.38;53.46
61345;BME280;47216;42.656;23.232;2023-04-30T10:56:53;93638.41;;;16.43;53.10
61345;BME280;47216;42.656;23.232;2023-04-30T10:59:22;93649.59;;;16.67;53.11
61345;BME280;47216;42.656;23.232;2023-04-30T11:01:58;93647.28;;;16.79;53.21
61345;BME280;47216;42.656;23.232;2023-04-30T11:04:25;93631.88;;;16.73;49.80
61345;BME280;47216;42.656;23.232;2023-04-30T11:07:08;93644.16;;;16.77;48.40
61345;BME280;47216;42.656;23.232;2023-04-30T11:09:37;93636.84;;;16.74;49.47
61345;BME280;47216;42.656;23.232;2023-04-30T11:12:11;93630.75;;;16.93;49.81
61345;BME280;47216;42.656;23.232;2023-04-30T11:14:40;93646.56;;;17.20;49.61
61345;BME280;47216;42.656;23.232;2023-04-30T11:17:09;93640.88;;;17.41;48.21
61345;BME280;47216;42.656;23.232;2023-04-30T11:19:45;93608.28;;;17.37;47.33
61345;BME280;47216;42.656;23.232;2023-04-30T11:22:17;93624.81;;;17.65;48.40
61345;BME280;47216;42.656;23.232;2023-04-30T11:25:02;93621.88;;;17.67;46.85
61345;BME280;47216;42.656;23.232;2023-04-30T11:27:32;93632.03;;;17.87;46.82
61345;BME280;47216;42.656;23.232;2023-04-30T11:30:00;93623.47;;;17.68;46.97
61345;BME280;47216;42.656;23.232;2023-04-30T11:32:31;93608.44;;;17.54;46.06
61345;BME280;47216;42.656;23.232;2023-04-30T11:34:59;93629.28;;;17.78;46.49
61345;BME280;47216;42.656;23.232;2023-04-30T11:37:30;93623.38;;;17.95;45.62
61345;BME280;47216;42.656;23.232;2023-04-30T11:39:59;93604.06;;;17.86;45.67
61345;BME280;47216;42.656;23.232;2023-04-30T11:42:26;93619.69;;;17.96;46.03
61345;BME280;47216;42.656;23.232;2023-04-30T11:45:01;93585.31;;;17.88;45.24
61345;BME280;47216;42.656;23.232;2023-04-30T11:47:37;93598.34;;;18.06;44.82
61345;BME280;47216;42.656;23.232;2023-04-30T11:50:05;93589.47;;;18.02;45.71
61345;BME280;47216;42.656;23.232;2023-04-30T11:52:32;93597.13;;;17.90;46.50
61345;BME280;47216;42.656;23.232;2023-04-30T11:54:59;93603.81;;;18.10;45.63
61345;BME280;47216;42.656;23.232;2023-04-30T11:57:26;93600.06;;;18.11;46.95
61345;BME280;47216;42.656;23.232;2023-04-30T12:00:11;93593.19;;;18.24;44.48
61345;BME280;47216;42.656;23.232;2023-04-30T12:02:38;93587.66;;;18.34;46.56
61345;BME280;47216;42.656;23.232;2023-04-30T12:05:11;93598.94;;;18.48;46.03
61345;BME280;47216;42.656;23.232;2023-04-30T12:07:44;93608.44;;;18.58;45.18
61345;BME280;47216;42.656;23.232;2023-04-30T12:10:11;93609.41;;;18.62;45.64
61345;BME280;47216;42.656;23.232;2023-04-30T12:12:38;93588.22;;;18.54;44.88
61345;BME280;47216;42.656;23.232;2023-04-30T12:15:15;93606.44;;;18.64;45.61
61345;BME280;47216;42.656;23.232;2023-04-30T12:17:43;93600.88;;;18.65;45.13
61345;BME280;47216;42.656;23.232;2023-04-30T12:20:11;93611.47;;;18.74;45.04
61345;BME280;47216;42.656;23.232;2023-04-30T12:22:39;93599.22;;;18.78;44.24
61345;BME280;47216;42.656;23.232;2023-04-30T12:25:10;93599.47;;;18.68;41.93
61345;BME280;47216;42.656;23.232;2023-04-30T12:27:39;93615.81;;;18.70;43.93
61345;BME280;47216;42.656;23.232;2023-04-30T12:30:07;93630.00;;;18.52;47.50
61345;BME280;47216;42.656;23.232;2023-04-30T12:32:43;93633.13;;;18.31;48.85
61345;BME280;47216;42.656;23.232;2023-04-30T12:35:13;93636.03;;;18.21;49.16
61345;BME280;47216;42.656;23.232;2023-04-30T12:37:42;93644.59;;;18.26;48.83
61345;BME280;47216;42.656;23.232;2023-04-30T12:40:10;93620.16;;;17.98;48.39
61345;BME280;47216;42.656;23.232;2023-04-30T12:42:37;93639.63;;;18.02;48.55
61345;BME280;47216;42.656;23.232;2023-04-30T12:45:05;93654.47;;;17.98;48.95
61345;BME280;47216;42.656;23.232;2023-04-30T12:47:37;93644.88;;;18.02;49.40
61345;BME280;47216;42.656;23.232;2023-04-30T12:50:08;93658.78;;;17.94;49.24
61345;BME280;47216;42.656;23.232;2023-04-30T12:52:37;93617.75;;;17.52;49.70
61345;BME280;47216;42.656;23.232;2023-04-30T12:55:15;93637.94;;;17.56;50.64
61345;BME280;47216;42.656;23.232;2023-04-30T12:58:03;93660.38;;;17.68;50.69
61345;BME280;47216;42.656;23.232;2023-04-30T13:00:48;93642.81;;;17.63;50.46
61345;BME280;47216;42.656;23.232;2023-04-30T13:03:17;93652.34;;;17.73;50.26
61345;BME280;47216;42.656;23.232;2023-04-30T13:05:50;93646.47;;;17.76;50.33